Airfield :







YOU CAN JOIN US ON...

 
LOGIN :

Register | Disclaimer

   EN    FR    IT 

 









Legend :    VFR   Marginal VFR   IFR   Intensive IFR   Very Intensive IFR
Visi :
Ceiling :
>= 8 km
>= 3000ft
5 to 8 km
1000 to 3000 ft
1500m to 5 km
500 to 1000 ft
800 to 1500m
200 to 500 ft
< 800m
< 200 ft
Symbols :   Thunderstorms  Fog  Heavy snow  Heavy precipitations  Wind > 20 kt







- Airport Elevation : 40 ft
- IATA code : YRF


CYCA - Cartwright

CURRENT METAR :
  • 221849Z AUTO 35022G36KT 4SM BR OVC007 02/01 A3002 RMK SLP167

EXPIRED METARs :
  • 221800Z AUTO 34022G34KT 3SM -RA BR OVC007 02/01 A3001 RMK SLP166
  • 221743Z AUTO 35022G32KT 4SM -RA BR OVC007 02/01 A3002 RMK SLP168
  • 221736Z AUTO 34021G35KT 5SM -RA BR OVC009 02/01 A3002 RMK SLP169
  • 221700Z AUTO 34019G30KT 9SM OVC009 02/01 A3001 RMK SLP166
  • 221605Z AUTO 34017G29KT 9SM OVC009 02/01 A3002 RMK SLP167

TAF AMD TAF CYCA
Valid from the 22 at 16:00 until the 23 at 02:00 UTC


221628Z 2216/2302 34020G30KT P6SM SCT005 OVC010
TEMPO 2216/2222 3SM -RA -DZ BR OVC007
FM222200 35020G30KT P6SM OVC010
TEMPO 2222/2302 21/2SM -RASN BR OVC005 RMK FCST BASED ON AUTO OBS. NXT FCST BY 222000Z
CZQX FIR / North America



MET'MAP, your aeronautical weather chart ! - Copyright ORBIFLY December 2007 - Disclaimer

ORBIFLY MET'MAP TEAM :

Programming & Development : Alexandra Zaïnal
Concept & Development : Baudouin d'Aumeries
Co-Development & Prog : Marc-Olivier Méhu
Technical & hardware support : Manuel Goepfert

Contact : metmap@orbifly.com




SOURCES & CREDITS :

   NOAA